sensor_id;sensor_type;location;lat;lon;timestamp;temperature;humidity
33825;DHT22;20127;48.962;8.342;2022-11-15T00:00:33;9.90;99.90
33825;DHT22;20127;48.962;8.342;2022-11-15T00:03:41;9.90;99.90
33825;DHT22;20127;48.962;8.342;2022-11-15T00:06:46;10.00;99.90
33825;DHT22;20127;48.962;8.342;2022-11-15T00:09:54;9.90;99.90
33825;DHT22;20127;48.962;8.342;2022-11-15T00:12:56;9.90;99.90
33825;DHT22;20127;48.962;8.342;2022-11-15T00:16:03;10.90;99.90
33825;DHT22;20127;48.962;8.342;2022-11-15T00:19:10;9.90;99.90
33825;DHT22;20127;48.962;8.342;2022-11-15T00:22:19;9.90;99.90
33825;DHT22;20127;48.962;8.342;2022-11-15T00:25:38;9.40;99.90
33825;DHT22;20127;48.962;8.342;2022-11-15T00:28:44;10.20;99.90
33825;DHT22;20127;48.962;8.342;2022-11-15T00:31:50;9.90;99.90
33825;DHT22;20127;48.962;8.342;2022-11-15T00:34:56;10.20;99.90
33825;DHT22;20127;48.962;8.342;2022-11-15T00:38:02;10.20;99.90
33825;DHT22;20127;48.962;8.342;2022-11-15T00:41:05;10.00;99.90
33825;DHT22;20127;48.962;8.342;2022-11-15T00:44:09;10.30;99.90
33825;DHT22;20127;48.962;8.342;2022-11-15T00:47:15;10.20;99.90
33825;DHT22;20127;48.962;8.342;2022-11-15T00:50:19;10.20;99.90
33825;DHT22;20127;48.962;8.342;2022-11-15T00:53:27;10.40;99.90
33825;DHT22;20127;48.962;8.342;2022-11-15T00:56:34;10.20;99.90
33825;DHT22;20127;48.962;8.342;2022-11-15T00:59:51;10.30;99.90
33825;DHT22;20127;48.962;8.342;2022-11-15T01:02:54;10.40;99.90
33825;DHT22;20127;48.962;8.342;2022-11-15T01:05:59;10.30;99.90
33825;DHT22;20127;48.962;8.342;2022-11-15T01:09:00;10.30;99.90
33825;DHT22;20127;48.962;8.342;2022-11-15T01:12:04;10.40;99.90
33825;DHT22;20127;48.962;8.342;2022-11-15T01:15:23;10.40;99.90
33825;DHT22;20127;48.962;8.342;2022-11-15T01:18:30;10.30;99.90
33825;DHT22;20127;48.962;8.342;2022-11-15T01:21:37;10.40;99.90
33825;DHT22;20127;48.962;8.342;2022-11-15T01:24:39;10.40;99.90
33825;DHT22;20127;48.962;8.342;2022-11-15T01:27:44;10.30;99.90
33825;DHT22;20127;48.962;8.342;2022-11-15T01:30:48;10.30;99.90
33825;DHT22;20127;48.962;8.342;2022-11-15T01:33:52;10.60;99.90
33825;DHT22;20127;48.962;8.342;2022-11-15T01:36:55;10.60;99.90
33825;DHT22;20127;48.962;8.342;2022-11-15T01:39:57;10.60;99.90
33825;DHT22;20127;48.962;8.342;2022-11-15T01:46:27;11.20;99.90
33825;DHT22;20127;48.962;8.342;2022-11-15T01:49:33;10.60;99.90
33825;DHT22;20127;48.962;8.342;2022-11-15T01:52:42;10.70;99.90
33825;DHT22;20127;48.962;8.342;2022-11-15T01:55:48;11.00;99.90
33825;DHT22;20127;48.962;8.342;2022-11-15T01:58:51;10.90;99.90
33825;DHT22;20127;48.962;8.342;2022-11-15T02:01:57;10.90;99.90
33825;DHT22;20127;48.962;8.342;2022-11-15T02:05:14;11.00;99.90
33825;DHT22;20127;48.962;8.342;2022-11-15T02:08:29;10.90;99.90
33825;DHT22;20127;48.962;8.342;2022-11-15T02:11:43;11.00;99.90
33825;DHT22;20127;48.962;8.342;2022-11-15T02:14:47;11.90;99.90
33825;DHT22;20127;48.962;8.342;2022-11-15T02:18:06;11.20;99.90
33825;DHT22;20127;48.962;8.342;2022-11-15T02:21:24;11.10;99.90
33825;DHT22;20127;48.962;8.342;2022-11-15T02:24:49;11.30;99.90
33825;DHT22;20127;48.962;8.342;2022-11-15T02:31:55;10.80;99.90
33825;DHT22;20127;48.962;8.342;2022-11-15T02:35:02;10.80;99.90
33825;DHT22;20127;48.962;8.342;2022-11-15T02:38:15;10.70;99.90
33825;DHT22;20127;48.962;8.342;2022-11-15T02:41:24;11.10;99.90
33825;DHT22;20127;48.962;8.342;2022-11-15T02:44:29;10.60;99.90
33825;DHT22;20127;48.962;8.342;2022-11-15T02:47:35;10.90;99.90
33825;DHT22;20127;48.962;8.342;2022-11-15T02:50:40;11.00;99.90
33825;DHT22;20127;48.962;8.342;2022-11-15T02:53:44;11.00;99.90
33825;DHT22;20127;48.962;8.342;2022-11-15T02:56:46;10.90;99.90
33825;DHT22;20127;48.962;8.342;2022-11-15T03:00:10;10.90;99.90
33825;DHT22;20127;48.962;8.342;2022-11-15T03:03:29;10.90;99.90
33825;DHT22;20127;48.962;8.342;2022-11-15T03:06:36;11.00;99.90
33825;DHT22;20127;48.962;8.342;2022-11-15T03:09:45;11.40;99.90
33825;DHT22;20127;48.962;8.342;2022-11-15T03:12:55;11.10;99.90
33825;DHT22;20127;48.962;8.342;2022-11-15T03:16:03;11.30;99.90
33825;DHT22;20127;48.962;8.342;2022-11-15T03:19:13;11.30;99.90
33825;DHT22;20127;48.962;8.342;2022-11-15T03:22:17;11.30;99.90
33825;DHT22;20127;48.962;8.342;2022-11-15T03:25:23;11.40;99.90
33825;DHT22;20127;48.962;8.342;2022-11-15T03:28:30;11.40;99.90
33825;DHT22;20127;48.962;8.342;2022-11-15T03:31:52;11.60;99.90
33825;DHT22;20127;48.962;8.342;2022-11-15T03:43:41;11.30;99.90
33825;DHT22;20127;48.962;8.342;2022-11-15T03:47:44;11.30;99.90
33825;DHT22;20127;48.962;8.342;2022-11-15T04:03:50;11.50;99.90
33825;DHT22;20127;48.962;8.342;2022-11-15T04:07:43;11.50;99.90
33825;DHT22;20127;48.962;8.342;2022-11-15T04:10:59;11.50;99.90
33825;DHT22;20127;48.962;8.342;2022-11-15T04:14:04;11.60;99.90
33825;DHT22;20127;48.962;8.342;2022-11-15T04:17:25;11.40;99.90
33825;DHT22;20127;48.962;8.342;2022-11-15T04:20:29;11.30;99.90
33825;DHT22;20127;48.962;8.342;2022-11-15T04:23:49;11.30;99.90
33825;DHT22;20127;48.962;8.342;2022-11-15T04:27:11;11.20;99.90
33825;DHT22;20127;48.962;8.342;2022-11-15T04:30:28;11.10;99.90
33825;DHT22;20127;48.962;8.342;2022-11-15T04:33:41;11.10;99.90
33825;DHT22;20127;48.962;8.342;2022-11-15T04:37:08;11.20;99.90
33825;DHT22;20127;48.962;8.342;2022-11-15T04:40:14;11.20;99.90
33825;DHT22;20127;48.962;8.342;2022-11-15T04:43:30;11.20;99.90
33825;DHT22;20127;48.962;8.342;2022-11-15T04:46:43;11.00;99.90
33825;DHT22;20127;48.962;8.342;2022-11-15T04:49:47;11.10;99.90
33825;DHT22;20127;48.962;8.342;2022-11-15T04:52:53;11.10;99.90
33825;DHT22;20127;48.962;8.342;2022-11-15T04:55:55;10.80;99.90
33825;DHT22;20127;48.962;8.342;2022-11-15T04:58:57;11.10;99.90
33825;DHT22;20127;48.962;8.342;2022-11-15T05:01:59;11.20;99.90
33825;DHT22;20127;48.962;8.342;2022-11-15T05:05:03;11.30;99.90
33825;DHT22;20127;48.962;8.342;2022-11-15T05:08:04;11.10;99.90
33825;DHT22;20127;48.962;8.342;2022-11-15T05:11:06;11.30;99.90
33825;DHT22;20127;48.962;8.342;2022-11-15T05:14:08;11.40;99.90
33825;DHT22;20127;48.962;8.342;2022-11-15T05:17:10;11.50;99.90
33825;DHT22;20127;48.962;8.342;2022-11-15T05:20:13;11.50;99.90
33825;DHT22;20127;48.962;8.342;2022-11-15T05:23:15;11.50;99.90
33825;DHT22;20127;48.962;8.342;2022-11-15T05:26:18;11.60;99.90
33825;DHT22;20127;48.962;8.342;2022-11-15T05:29:20;11.60;99.90
33825;DHT22;20127;48.962;8.342;2022-11-15T05:32:22;11.50;99.90
33825;DHT22;20127;48.962;8.342;2022-11-15T05:35:29;11.50;99.90
33825;DHT22;20127;48.962;8.342;2022-11-15T05:38:33;11.40;99.90
33825;DHT22;20127;48.962;8.342;2022-11-15T05:41:38;11.30;99.90
33825;DHT22;20127;48.962;8.342;2022-11-15T05:44:44;11.30;99.90
33825;DHT22;20127;48.962;8.342;2022-11-15T05:47:47;11.20;99.90
33825;DHT22;20127;48.962;8.342;2022-11-15T05:50:52;11.20;99.90
33825;DHT22;20127;48.962;8.342;2022-11-15T05:53:56;11.20;99.90
33825;DHT22;20127;48.962;8.342;2022-11-15T05:56:59;11.50;99.90
33825;DHT22;20127;48.962;8.342;2022-11-15T06:00:02;11.40;99.90
33825;DHT22;20127;48.962;8.342;2022-11-15T06:03:34;10.90;99.90
33825;DHT22;20127;48.962;8.342;2022-11-15T06:11:06;10.50;99.90
33825;DHT22;20127;48.962;8.342;2022-11-15T06:14:40;10.60;99.90
33825;DHT22;20127;48.962;8.342;2022-11-15T06:17:49;10.50;99.90
33825;DHT22;20127;48.962;8.342;2022-11-15T06:21:01;10.70;99.90
33825;DHT22;20127;48.962;8.342;2022-11-15T06:24:57;11.40;99.90
33825;DHT22;20127;48.962;8.342;2022-11-15T06:45:07;11.00;99.90
33825;DHT22;20127;48.962;8.342;2022-11-15T06:56:26;11.30;99.90
33825;DHT22;20127;48.962;8.342;2022-11-15T06:59:28;11.60;99.90
33825;DHT22;20127;48.962;8.342;2022-11-15T07:02:38;11.50;99.90
33825;DHT22;20127;48.962;8.342;2022-11-15T07:05:51;11.40;99.90
33825;DHT22;20127;48.962;8.342;2022-11-15T07:09:01;11.40;99.90
33825;DHT22;20127;48.962;8.342;2022-11-15T07:12:07;11.30;99.90
33825;DHT22;20127;48.962;8.342;2022-11-15T07:15:09;11.30;99.90
33825;DHT22;20127;48.962;8.342;2022-11-15T07:18:13;11.20;99.90
33825;DHT22;20127;48.962;8.342;2022-11-15T07:21:19;11.10;99.90
33825;DHT22;20127;48.962;8.342;2022-11-15T07:24:42;11.50;99.90
33825;DHT22;20127;48.962;8.342;2022-11-15T07:27:57;11.00;99.90
33825;DHT22;20127;48.962;8.342;2022-11-15T07:31:06;10.80;99.90
33825;DHT22;20127;48.962;8.342;2022-11-15T07:34:24;10.80;99.90
33825;DHT22;20127;48.962;8.342;2022-11-15T07:37:37;10.60;99.90
33825;DHT22;20127;48.962;8.342;2022-11-15T07:40:55;10.90;99.90
33825;DHT22;20127;48.962;8.342;2022-11-15T07:47:53;11.10;99.90
33825;DHT22;20127;48.962;8.342;2022-11-15T07:51:01;11.10;99.90
33825;DHT22;20127;48.962;8.342;2022-11-15T07:54:07;11.40;99.90
33825;DHT22;20127;48.962;8.342;2022-11-15T08:00:30;11.60;99.90
33825;DHT22;20127;48.962;8.342;2022-11-15T08:03:32;11.80;99.90
33825;DHT22;20127;48.962;8.342;2022-11-15T08:06:35;11.80;99.90
33825;DHT22;20127;48.962;8.342;2022-11-15T08:09:37;12.00;99.90
33825;DHT22;20127;48.962;8.342;2022-11-15T08:12:38;12.10;99.90
33825;DHT22;20127;48.962;8.342;2022-11-15T08:15:40;12.20;99.90
33825;DHT22;20127;48.962;8.342;2022-11-15T08:18:43;12.40;99.90
33825;DHT22;20127;48.962;8.342;2022-11-15T08:21:46;12.50;99.90
33825;DHT22;20127;48.962;8.342;2022-11-15T08:24:48;12.50;99.90
33825;DHT22;20127;48.962;8.342;2022-11-15T08:27:51;12.60;99.90
33825;DHT22;20127;48.962;8.342;2022-11-15T08:30:53;12.60;99.90
33825;DHT22;20127;48.962;8.342;2022-11-15T08:33:55;12.80;99.90
33825;DHT22;20127;48.962;8.342;2022-11-15T08:36:58;13.00;99.90
33825;DHT22;20127;48.962;8.342;2022-11-15T08:39:59;13.10;99.90
33825;DHT22;20127;48.962;8.342;2022-11-15T08:43:01;13.20;99.90
33825;DHT22;20127;48.962;8.342;2022-11-15T08:46:03;13.40;99.90
33825;DHT22;20127;48.962;8.342;2022-11-15T08:49:05;13.60;99.90
33825;DHT22;20127;48.962;8.342;2022-11-15T08:52:08;13.80;99.90
33825;DHT22;20127;48.962;8.342;2022-11-15T08:55:10;13.70;99.90
33825;DHT22;20127;48.962;8.342;2022-11-15T08:58:11;13.80;99.90
33825;DHT22;20127;48.962;8.342;2022-11-15T09:01:16;14.00;99.90
33825;DHT22;20127;48.962;8.342;2022-11-15T09:04:18;14.10;99.90
33825;DHT22;20127;48.962;8.342;2022-11-15T09:07:21;14.30;99.90
33825;DHT22;20127;48.962;8.342;2022-11-15T09:10:23;14.40;99.90
33825;DHT22;20127;48.962;8.342;2022-11-15T09:13:25;14.50;99.90
33825;DHT22;20127;48.962;8.342;2022-11-15T09:16:26;14.70;99.90
33825;DHT22;20127;48.962;8.342;2022-11-15T09:19:28;14.80;99.90
33825;DHT22;20127;48.962;8.342;2022-11-15T09:22:32;14.90;99.90
33825;DHT22;20127;48.962;8.342;2022-11-15T09:25:33;14.90;99.90
33825;DHT22;20127;48.962;8.342;2022-11-15T09:28:36;14.90;99.90
33825;DHT22;20127;48.962;8.342;2022-11-15T09:31:38;15.00;99.90
33825;DHT22;20127;48.962;8.342;2022-11-15T09:34:40;15.10;99.90
33825;DHT22;20127;48.962;8.342;2022-11-15T09:37:43;15.20;99.90
33825;DHT22;20127;48.962;8.342;2022-11-15T09:40:46;15.30;99.90
33825;DHT22;20127;48.962;8.342;2022-11-15T09:43:55;15.40;99.90
33825;DHT22;20127;48.962;8.342;2022-11-15T09:47:06;15.30;99.90
33825;DHT22;20127;48.962;8.342;2022-11-15T09:50:12;15.20;99.90
33825;DHT22;20127;48.962;8.342;2022-11-15T09:53:22;15.20;99.90
33825;DHT22;20127;48.962;8.342;2022-11-15T09:56:28;15.20;99.90
33825;DHT22;20127;48.962;8.342;2022-11-15T09:59:51;15.00;99.90
33825;DHT22;20127;48.962;8.342;2022-11-15T10:03:08;15.00;99.90
33825;DHT22;20127;48.962;8.342;2022-11-15T10:06:18;15.20;99.90
33825;DHT22;20127;48.962;8.342;2022-11-15T10:09:27;15.30;99.90
33825;DHT22;20127;48.962;8.342;2022-11-15T10:12:31;15.40;99.90
33825;DHT22;20127;48.962;8.342;2022-11-15T10:15:33;15.40;99.90
33825;DHT22;20127;48.962;8.342;2022-11-15T10:18:43;15.40;99.90
33825;DHT22;20127;48.962;8.342;2022-11-15T10:21:56;15.30;99.90
33825;DHT22;20127;48.962;8.342;2022-11-15T10:25:19;15.40;99.90
33825;DHT22;20127;48.962;8.342;2022-11-15T10:28:23;15.40;99.90
33825;DHT22;20127;48.962;8.342;2022-11-15T10:31:28;15.30;99.90
33825;DHT22;20127;48.962;8.342;2022-11-15T10:34:35;15.20;99.90
33825;DHT22;20127;48.962;8.342;2022-11-15T10:37:37;15.30;99.90
33825;DHT22;20127;48.962;8.342;2022-11-15T10:40:41;15.30;99.90
33825;DHT22;20127;48.962;8.342;2022-11-15T10:43:44;15.40;99.90
33825;DHT22;20127;48.962;8.342;2022-11-15T10:46:47;15.30;99.90
33825;DHT22;20127;48.962;8.342;2022-11-15T10:50:05;15.30;99.90
33825;DHT22;20127;48.962;8.342;2022-11-15T10:53:21;15.30;99.90
33825;DHT22;20127;48.962;8.342;2022-11-15T10:56:26;15.20;99.90
33825;DHT22;20127;48.962;8.342;2022-11-15T10:59:30;15.30;99.90
33825;DHT22;20127;48.962;8.342;2022-11-15T11:02:35;15.20;99.90
33825;DHT22;20127;48.962;8.342;2022-11-15T11:05:38;15.20;99.90
33825;DHT22;20127;48.962;8.342;2022-11-15T11:08:54;15.30;99.90
33825;DHT22;20127;48.962;8.342;2022-11-15T11:11:57;15.20;99.90
33825;DHT22;20127;48.962;8.342;2022-11-15T11:15:01;15.30;99.90
33825;DHT22;20127;48.962;8.342;2022-11-15T11:18:07;15.30;99.90
33825;DHT22;20127;48.962;8.342;2022-11-15T11:21:21;15.30;99.90
33825;DHT22;20127;48.962;8.342;2022-11-15T11:24:32;15.30;99.90
33825;DHT22;20127;48.962;8.342;2022-11-15T11:27:43;15.40;99.90
33825;DHT22;20127;48.962;8.342;2022-11-15T11:31:00;15.30;99.90
33825;DHT22;20127;48.962;8.342;2022-11-15T11:34:14;15.30;99.90
33825;DHT22;20127;48.962;8.342;2022-11-15T11:37:24;15.40;99.90
33825;DHT22;20127;48.962;8.342;2022-11-15T11:40:30;15.70;99.90
33825;DHT22;20127;48.962;8.342;2022-11-15T11:43:41;15.70;99.90
33825;DHT22;20127;48.962;8.342;2022-11-15T11:46:55;15.70;99.90
33825;DHT22;20127;48.962;8.342;2022-11-15T11:49:59;15.60;99.90
33825;DHT22;20127;48.962;8.342;2022-11-15T11:53:05;15.60;99.90
33825;DHT22;20127;48.962;8.342;2022-11-15T11:56:21;15.70;99.90
33825;DHT22;20127;48.962;8.342;2022-11-15T11:59:33;15.90;99.90
33825;DHT22;20127;48.962;8.342;2022-11-15T12:02:40;16.10;99.90
33825;DHT22;20127;48.962;8.342;2022-11-15T12:05:44;16.20;99.90
33825;DHT22;20127;48.962;8.342;2022-11-15T12:08:52;16.40;99.90
33825;DHT22;20127;48.962;8.342;2022-11-15T12:12:01;16.50;99.90
33825;DHT22;20127;48.962;8.342;2022-11-15T12:15:12;16.20;99.90
33825;DHT22;20127;48.962;8.342;2022-11-15T12:18:16;16.20;99.90
33825;DHT22;20127;48.962;8.342;2022-11-15T12:21:27;16.00;99.90
33825;DHT22;20127;48.962;8.342;2022-11-15T12:24:34;15.90;99.90
33825;DHT22;20127;48.962;8.342;2022-11-15T12:27:44;15.80;99.90
33825;DHT22;20127;48.962;8.342;2022-11-15T12:30:50;16.10;99.90
33825;DHT22;20127;48.962;8.342;2022-11-15T12:33:56;16.50;99.90
33825;DHT22;20127;48.962;8.342;2022-11-15T12:36:58;16.60;99.90
33825;DHT22;20127;48.962;8.342;2022-11-15T12:40:15;16.70;99.90
33825;DHT22;20127;48.962;8.342;2022-11-15T12:43:37;17.10;99.90
33825;DHT22;20127;48.962;8.342;2022-11-15T12:47:03;17.10;99.90
33825;DHT22;20127;48.962;8.342;2022-11-15T12:50:11;17.00;99.90
33825;DHT22;20127;48.962;8.342;2022-11-15T12:53:27;17.00;99.90
33825;DHT22;20127;48.962;8.342;2022-11-15T12:56:29;17.00;99.90
33825;DHT22;20127;48.962;8.342;2022-11-15T12:59:48;17.10;99.90
33825;DHT22;20127;48.962;8.342;2022-11-15T13:03:16;17.00;99.90
33825;DHT22;20127;48.962;8.342;2022-11-15T13:06:38;17.00;99.90
33825;DHT22;20127;48.962;8.342;2022-11-15T13:09:55;17.20;99.90
33825;DHT22;20127;48.962;8.342;2022-11-15T13:13:00;17.40;99.90
33825;DHT22;20127;48.962;8.342;2022-11-15T13:16:05;17.30;99.90
33825;DHT22;20127;48.962;8.342;2022-11-15T13:19:10;17.20;99.90
33825;DHT22;20127;48.962;8.342;2022-11-15T13:22:13;17.10;99.90
33825;DHT22;20127;48.962;8.342;2022-11-15T13:25:49;16.90;99.90
33825;DHT22;20127;48.962;8.342;2022-11-15T13:28:53;17.10;99.90
33825;DHT22;20127;48.962;8.342;2022-11-15T13:31:55;17.10;99.90
33825;DHT22;20127;48.962;8.342;2022-11-15T13:35:00;17.20;99.90
33825;DHT22;20127;48.962;8.342;2022-11-15T13:38:04;17.10;99.90
33825;DHT22;20127;48.962;8.342;2022-11-15T13:41:17;17.10;99.90
33825;DHT22;20127;48.962;8.342;2022-11-15T13:44:22;17.10;99.90
33825;DHT22;20127;48.962;8.342;2022-11-15T13:47:25;17.20;99.90
33825;DHT22;20127;48.962;8.342;2022-11-15T13:50:32;17.10;99.90
33825;DHT22;20127;48.962;8.342;2022-11-15T13:53:37;17.00;99.90
33825;DHT22;20127;48.962;8.342;2022-11-15T13:56:43;16.80;99.90
33825;DHT22;20127;48.962;8.342;2022-11-15T13:59:48;16.70;99.90
33825;DHT22;20127;48.962;8.342;2022-11-15T14:02:50;16.60;99.90
33825;DHT22;20127;48.962;8.342;2022-11-15T14:06:12;16.40;99.90
33825;DHT22;20127;48.962;8.342;2022-11-15T14:09:30;16.10;99.90
33825;DHT22;20127;48.962;8.342;2022-11-15T14:12:34;16.10;99.90
33825;DHT22;20127;48.962;8.342;2022-11-15T14:15:37;16.30;99.90
33825;DHT22;20127;48.962;8.342;2022-11-15T14:18:42;16.30;99.90
33825;DHT22;20127;48.962;8.342;2022-11-15T14:22:12;16.20;99.90
33825;DHT22;20127;48.962;8.342;2022-11-15T14:25:16;16.10;99.90
33825;DHT22;20127;48.962;8.342;2022-11-15T14:28:31;16.10;99.90
33825;DHT22;20127;48.962;8.342;2022-11-15T14:31:36;16.20;99.90
33825;DHT22;20127;48.962;8.342;2022-11-15T14:34:41;16.20;99.90
33825;DHT22;20127;48.962;8.342;2022-11-15T14:37:44;16.40;99.90
33825;DHT22;20127;48.962;8.342;2022-11-15T14:40:46;16.40;99.90
33825;DHT22;20127;48.962;8.342;2022-11-15T14:43:48;16.30;99.90
33825;DHT22;20127;48.962;8.342;2022-11-15T14:46:50;16.30;99.90
33825;DHT22;20127;48.962;8.342;2022-11-15T14:49:52;16.20;99.90
33825;DHT22;20127;48.962;8.342;2022-11-15T14:52:55;16.10;99.90
33825;DHT22;20127;48.962;8.342;2022-11-15T14:55:56;15.90;99.90
33825;DHT22;20127;48.962;8.342;2022-11-15T14:58:58;15.90;99.90
33825;DHT22;20127;48.962;8.342;2022-11-15T15:02:00;15.80;99.90
33825;DHT22;20127;48.962;8.342;2022-11-15T15:05:14;15.80;99.90
33825;DHT22;20127;48.962;8.342;2022-11-15T15:08:17;15.80;99.90
33825;DHT22;20127;48.962;8.342;2022-11-15T15:11:21;15.80;99.90
33825;DHT22;20127;48.962;8.342;2022-11-15T15:14:25;15.80;99.90
33825;DHT22;20127;48.962;8.342;2022-11-15T15:17:27;15.80;99.90
33825;DHT22;20127;48.962;8.342;2022-11-15T15:20:29;15.90;99.90
33825;DHT22;20127;48.962;8.342;2022-11-15T15:23:32;16.00;99.90
33825;DHT22;20127;48.962;8.342;2022-11-15T15:26:35;15.90;99.90
33825;DHT22;20127;48.962;8.342;2022-11-15T15:29:39;15.90;99.90
33825;DHT22;20127;48.962;8.342;2022-11-15T15:32:41;15.90;99.90
33825;DHT22;20127;48.962;8.342;2022-11-15T15:35:43;15.90;99.90
33825;DHT22;20127;48.962;8.342;2022-11-15T15:38:46;16.00;99.90
33825;DHT22;20127;48.962;8.342;2022-11-15T15:41:48;15.90;99.90
33825;DHT22;20127;48.962;8.342;2022-11-15T15:44:50;15.80;99.90
33825;DHT22;20127;48.962;8.342;2022-11-15T15:47:52;15.80;99.90
33825;DHT22;20127;48.962;8.342;2022-11-15T15:50:53;15.80;99.90
33825;DHT22;20127;48.962;8.342;2022-11-15T15:53:56;15.70;99.90
33825;DHT22;20127;48.962;8.342;2022-11-15T15:56:58;15.70;99.90
33825;DHT22;20127;48.962;8.342;2022-11-15T16:00:00;15.60;99.90
33825;DHT22;20127;48.962;8.342;2022-11-15T16:03:02;15.50;99.90
33825;DHT22;20127;48.962;8.342;2022-11-15T16:06:04;15.50;99.90
33825;DHT22;20127;48.962;8.342;2022-11-15T16:09:12;15.50;99.90
33825;DHT22;20127;48.962;8.342;2022-11-15T16:12:14;15.40;99.90
33825;DHT22;20127;48.962;8.342;2022-11-15T16:15:17;15.50;99.90
33825;DHT22;20127;48.962;8.342;2022-11-15T16:18:18;15.40;99.90
33825;DHT22;20127;48.962;8.342;2022-11-15T16:21:20;15.30;99.90
33825;DHT22;20127;48.962;8.342;2022-11-15T16:24:23;15.20;99.90
33825;DHT22;20127;48.962;8.342;2022-11-15T16:27:25;15.20;99.90
33825;DHT22;20127;48.962;8.342;2022-11-15T16:30:27;15.20;99.90
33825;DHT22;20127;48.962;8.342;2022-11-15T16:33:28;15.20;99.90
33825;DHT22;20127;48.962;8.342;2022-11-15T16:36:32;15.10;99.90
33825;DHT22;20127;48.962;8.342;2022-11-15T16:39:35;15.10;99.90
33825;DHT22;20127;48.962;8.342;2022-11-15T16:42:37;15.20;99.90
33825;DHT22;20127;48.962;8.342;2022-11-15T16:45:38;15.20;99.90
33825;DHT22;20127;48.962;8.342;2022-11-15T16:48:40;15.10;99.90
33825;DHT22;20127;48.962;8.342;2022-11-15T16:51:42;15.10;99.90
33825;DHT22;20127;48.962;8.342;2022-11-15T16:54:47;15.10;99.90
33825;DHT22;20127;48.962;8.342;2022-11-15T16:57:49;15.10;99.90
33825;DHT22;20127;48.962;8.342;2022-11-15T17:00:51;15.00;99.90
33825;DHT22;20127;48.962;8.342;2022-11-15T17:03:54;15.00;99.90
33825;DHT22;20127;48.962;8.342;2022-11-15T17:06:56;15.00;99.90
33825;DHT22;20127;48.962;8.342;2022-11-15T17:09:59;14.90;99.90
33825;DHT22;20127;48.962;8.342;2022-11-15T17:13:00;14.90;99.90
33825;DHT22;20127;48.962;8.342;2022-11-15T17:16:04;14.90;99.90
33825;DHT22;20127;48.962;8.342;2022-11-15T17:19:06;14.80;99.90
33825;DHT22;20127;48.962;8.342;2022-11-15T17:22:07;14.90;99.90
33825;DHT22;20127;48.962;8.342;2022-11-15T17:25:10;14.90;99.90
33825;DHT22;20127;48.962;8.342;2022-11-15T17:28:12;14.90;99.90
33825;DHT22;20127;48.962;8.342;2022-11-15T17:31:14;14.90;99.90
33825;DHT22;20127;48.962;8.342;2022-11-15T17:34:16;14.90;99.90
33825;DHT22;20127;48.962;8.342;2022-11-15T17:37:17;14.90;99.90
33825;DHT22;20127;48.962;8.342;2022-11-15T17:40:20;14.90;99.90
33825;DHT22;20127;48.962;8.342;2022-11-15T17:43:22;14.90;99.90
33825;DHT22;20127;48.962;8.342;2022-11-15T17:46:24;14.80;99.90
33825;DHT22;20127;48.962;8.342;2022-11-15T17:49:26;14.80;99.90
33825;DHT22;20127;48.962;8.342;2022-11-15T17:52:28;14.80;99.90
33825;DHT22;20127;48.962;8.342;2022-11-15T17:55:31;14.70;99.90
33825;DHT22;20127;48.962;8.342;2022-11-15T17:58:34;15.10;99.90
33825;DHT22;20127;48.962;8.342;2022-11-15T18:01:36;14.70;99.90
33825;DHT22;20127;48.962;8.342;2022-11-15T18:04:38;14.60;99.90
33825;DHT22;20127;48.962;8.342;2022-11-15T18:07:40;14.50;99.90
33825;DHT22;20127;48.962;8.342;2022-11-15T18:10:43;14.50;99.90
33825;DHT22;20127;48.962;8.342;2022-11-15T18:13:46;14.40;99.90
33825;DHT22;20127;48.962;8.342;2022-11-15T18:16:48;14.40;99.90
33825;DHT22;20127;48.962;8.342;2022-11-15T18:19:50;14.40;99.90
33825;DHT22;20127;48.962;8.342;2022-11-15T18:22:52;14.40;99.90
33825;DHT22;20127;48.962;8.342;2022-11-15T18:25:55;14.30;99.90
33825;DHT22;20127;48.962;8.342;2022-11-15T18:29:02;14.30;99.90
33825;DHT22;20127;48.962;8.342;2022-11-15T18:32:04;14.30;99.90
33825;DHT22;20127;48.962;8.342;2022-11-15T18:35:10;14.20;99.90
33825;DHT22;20127;48.962;8.342;2022-11-15T18:38:12;14.10;99.90
33825;DHT22;20127;48.962;8.342;2022-11-15T18:41:17;14.00;99.90
33825;DHT22;20127;48.962;8.342;2022-11-15T18:44:24;14.00;99.90
33825;DHT22;20127;48.962;8.342;2022-11-15T18:47:25;14.10;99.90
33825;DHT22;20127;48.962;8.342;2022-11-15T18:50:29;14.20;99.90
33825;DHT22;20127;48.962;8.342;2022-11-15T18:53:31;14.30;99.90
33825;DHT22;20127;48.962;8.342;2022-11-15T18:56:34;14.40;99.90
33825;DHT22;20127;48.962;8.342;2022-11-15T18:59:36;14.40;99.90
33825;DHT22;20127;48.962;8.342;2022-11-15T19:02:38;14.40;99.90
33825;DHT22;20127;48.962;8.342;2022-11-15T19:05:39;14.40;99.90
33825;DHT22;20127;48.962;8.342;2022-11-15T19:08:42;14.40;99.90
33825;DHT22;20127;48.962;8.342;2022-11-15T19:11:46;14.40;99.90
33825;DHT22;20127;48.962;8.342;2022-11-15T19:14:50;14.40;99.90
33825;DHT22;20127;48.962;8.342;2022-11-15T19:17:53;14.50;99.90
33825;DHT22;20127;48.962;8.342;2022-11-15T19:20:56;14.50;99.90
33825;DHT22;20127;48.962;8.342;2022-11-15T19:23:58;14.50;99.90
33825;DHT22;20127;48.962;8.342;2022-11-15T19:27:02;14.50;99.90
33825;DHT22;20127;48.962;8.342;2022-11-15T19:30:05;14.50;99.90
33825;DHT22;20127;48.962;8.342;2022-11-15T19:33:06;14.50;99.90
33825;DHT22;20127;48.962;8.342;2022-11-15T19:36:11;14.50;99.90
33825;DHT22;20127;48.962;8.342;2022-11-15T19:39:14;14.40;99.90
33825;DHT22;20127;48.962;8.342;2022-11-15T19:42:19;14.20;99.90
33825;DHT22;20127;48.962;8.342;2022-11-15T19:45:20;14.00;99.90
33825;DHT22;20127;48.962;8.342;2022-11-15T19:48:22;13.70;99.90
33825;DHT22;20127;48.962;8.342;2022-11-15T19:51:26;13.60;99.90
33825;DHT22;20127;48.962;8.342;2022-11-15T19:54:28;13.50;99.90
33825;DHT22;20127;48.962;8.342;2022-11-15T19:57:32;13.50;99.90
